createdAt,value
2018-11-22T00:02:41.812Z,101742.88
2018-11-22T00:06:45.533Z,101746.95
2018-11-22T00:10:31.538Z,101743.49
2018-11-22T00:14:16.657Z,101744.98
2018-11-22T00:18:02.018Z,101740.91
2018-11-22T00:21:47.507Z,101742.00
2018-11-22T00:25:32.652Z,101742.47
2018-11-22T00:29:17.766Z,101744.73
2018-11-22T00:33:02.946Z,101742.81
2018-11-22T00:37:06.699Z,101741.25
2018-11-22T00:40:51.847Z,101739.89
2018-11-22T00:44:37.283Z,101745.84
2018-11-22T00:48:22.705Z,101744.02
2018-11-22T00:52:07.896Z,101745.39
2018-11-22T00:56:11.886Z,101747.59
2018-11-22T00:59:57.016Z,101748.84
2018-11-22T01:03:42.135Z,101750.91
2018-11-22T01:07:45.824Z,101747.83
2018-11-22T01:15:27.253Z,101749.41
2018-11-22T01:19:12.388Z,101750.03
2018-11-22T01:22:59.104Z,101746.16
2018-11-22T01:26:44.227Z,101740.58
2018-11-22T01:30:29.345Z,101750.89
2018-11-22T01:34:14.477Z,101745.70
2018-11-22T01:37:59.989Z,101744.63
2018-11-22T01:41:45.122Z,101748.94
2018-11-22T01:45:30.257Z,101747.86
2018-11-22T01:49:15.428Z,101744.22
2018-11-22T01:53:00.551Z,101740.31
2018-11-22T01:56:45.790Z,101736.62
2018-11-22T02:00:31.183Z,101737.52
2018-11-22T02:04:16.316Z,101731.03
2018-11-22T02:08:20.042Z,101724.89
2018-11-22T02:12:05.191Z,101727.56
2018-11-22T02:15:50.326Z,101726.45
2018-11-22T02:19:54.628Z,101726.86
2018-11-22T02:23:39.756Z,101727.95
2018-11-22T02:27:43.701Z,101728.55
2018-11-22T02:31:28.828Z,101727.56
2018-11-22T02:35:14.590Z,101728.44
2018-11-22T02:38:59.738Z,101726.38
2018-11-22T02:42:45.760Z,101725.13
2018-11-22T02:46:30.888Z,101727.28
2018-11-22T02:50:17.463Z,101724.27
2018-11-22T02:54:02.553Z,101727.39
2018-11-22T02:57:47.763Z,101727.89
2018-11-22T03:01:51.442Z,101730.51
2018-11-22T03:05:36.632Z,101732.69
2018-11-22T03:09:22.027Z,101732.30
2018-11-22T03:13:26.822Z,101728.09
2018-11-22T03:16:52.986Z,101731.91
2018-11-22T03:20:38.078Z,101727.22
2018-11-22T03:24:23.211Z,101725.17
2018-11-22T03:28:08.346Z,101724.43
2018-11-22T03:31:53.466Z,101722.16
2018-11-22T03:35:38.598Z,101721.75
2018-11-22T03:39:23.733Z,101714.64
2018-11-22T03:43:08.873Z,101722.23
2018-11-22T03:46:53.989Z,101723.66
2018-11-22T03:50:39.107Z,101719.65
2018-11-22T03:54:42.763Z,101721.28
2018-11-22T03:58:28.555Z,101715.14
2018-11-22T04:02:13.662Z,101709.28
2018-11-22T04:05:58.799Z,101721.95
2018-11-22T04:10:02.464Z,101708.94
2018-11-22T04:13:48.068Z,101710.80
2018-11-22T04:17:33.488Z,101718.16
2018-11-22T04:21:18.620Z,101714.50
2018-11-22T04:25:03.768Z,101713.67
2018-11-22T04:29:07.578Z,101711.00
2018-11-22T04:32:53.316Z,101712.11
2018-11-22T04:36:39.223Z,101708.88
2018-11-22T04:40:25.502Z,101703.78
2018-11-22T04:44:10.663Z,101703.98
2018-11-22T04:47:57.414Z,101704.02
2018-11-22T04:51:42.528Z,101710.88
2018-11-22T04:55:27.680Z,101708.06
2018-11-22T04:59:12.801Z,101703.76
2018-11-22T05:02:57.910Z,101706.14
2018-11-22T05:06:43.069Z,101696.71
2018-11-22T05:10:29.396Z,101695.58
2018-11-22T05:14:14.544Z,101702.27
2018-11-22T05:18:00.019Z,101702.45
2018-11-22T05:21:45.241Z,101695.58
2018-11-22T05:25:30.384Z,101690.80
2018-11-22T05:29:15.879Z,101695.34
2018-11-22T05:33:01.352Z,101691.00
2018-11-22T05:36:46.508Z,101694.44
2018-11-22T05:40:31.962Z,101693.30
2018-11-22T05:44:35.700Z,101697.15
2018-11-22T05:48:20.829Z,101702.91
2018-11-22T05:52:06.615Z,101694.84
2018-11-22T05:55:51.363Z,101696.16
2018-11-22T05:59:36.528Z,101696.97
2018-11-22T06:03:22.057Z,101705.47
2018-11-22T06:06:59.668Z,101699.06
2018-11-22T06:10:45.347Z,101697.84
2018-11-22T06:14:30.801Z,101701.78
2018-11-22T06:18:34.476Z,101696.83
2018-11-22T06:22:19.696Z,101688.19
2018-11-22T06:26:04.862Z,101693.16
2018-11-22T06:29:49.983Z,101697.87
2018-11-22T06:33:35.442Z,101701.19
2018-11-22T06:37:20.579Z,101708.27
2018-11-22T06:41:05.717Z,101706.27
2018-11-22T06:44:51.114Z,101707.16
2018-11-22T06:48:36.216Z,101708.99
2018-11-22T06:52:21.328Z,101713.83
2018-11-22T06:56:06.796Z,101716.04
2018-11-22T06:59:51.918Z,101709.72
2018-11-22T07:03:37.043Z,101708.82
2018-11-22T07:07:22.190Z,101704.57
2018-11-22T07:11:07.392Z,101714.44
2018-11-22T07:14:52.604Z,101707.42
2018-11-22T07:18:56.316Z,101713.31
2018-11-22T07:23:00.030Z,101709.05
2018-11-22T07:26:45.450Z,101714.41
2018-11-22T07:30:32.239Z,101721.72
2018-11-22T07:34:17.402Z,101720.00
2018-11-22T07:38:03.217Z,101723.81
2018-11-22T07:41:48.630Z,101720.61
2018-11-22T07:45:35.459Z,101718.51
2018-11-22T07:49:20.621Z,101716.77
2018-11-22T07:53:05.808Z,101719.77
2018-11-22T07:56:51.002Z,101720.86
2018-11-22T08:00:38.131Z,101723.98
2018-11-22T08:04:41.843Z,101727.14
2018-11-22T08:08:27.021Z,101723.67
2018-11-22T08:12:12.321Z,101725.59
2018-11-22T08:15:57.332Z,101727.67
2018-11-22T08:19:42.539Z,101722.11
2018-11-22T08:23:46.615Z,101734.06
2018-11-22T08:27:31.792Z,101726.68
2018-11-22T08:31:16.978Z,101720.29
2018-11-22T08:35:02.189Z,101724.91
2018-11-22T08:38:47.607Z,101730.38
2018-11-22T08:42:32.788Z,101734.09
2018-11-22T08:46:17.918Z,101734.63
2018-11-22T08:50:03.499Z,101729.48
2018-11-22T08:53:48.702Z,101724.94
2018-11-22T08:57:33.943Z,101725.41
2018-11-22T09:01:19.142Z,101728.55
2018-11-22T09:05:04.331Z,101721.64
2018-11-22T09:08:49.455Z,101723.12
2018-11-22T09:12:34.599Z,101726.78
2018-11-22T09:16:19.814Z,101728.48
2018-11-22T09:20:05.014Z,101730.05
2018-11-22T09:23:50.172Z,101737.83
2018-11-22T09:27:35.442Z,101733.72
2018-11-22T09:31:20.705Z,101738.07
2018-11-22T09:35:06.224Z,101737.98
2018-11-22T09:38:51.606Z,101738.48
2018-11-22T09:42:36.831Z,101742.92
2018-11-22T09:46:22.043Z,101739.92
2018-11-22T09:50:07.515Z,101748.72
2018-11-22T09:54:11.192Z,101749.15
2018-11-22T09:58:14.846Z,101751.38
2018-11-22T10:02:18.538Z,101750.70
2018-11-22T10:06:03.736Z,101753.28
2018-11-22T10:09:48.836Z,101743.91
2018-11-22T10:13:33.997Z,101735.63
2018-11-22T10:17:19.157Z,101735.28
2018-11-22T10:21:04.595Z,101745.10
2018-11-22T10:24:49.764Z,101740.56
2018-11-22T10:28:34.879Z,101742.73
2018-11-22T10:32:20.009Z,101744.19
2018-11-22T10:36:05.146Z,101746.84
2018-11-22T10:40:08.850Z,101753.55
2018-11-22T10:43:53.952Z,101758.04
2018-11-22T10:47:39.374Z,101753.77
2018-11-22T10:51:24.510Z,101744.95
2018-11-22T10:55:11.448Z,101747.88
2018-11-22T10:58:56.553Z,101748.95
2018-11-22T11:03:00.217Z,101750.33
2018-11-22T11:07:03.901Z,101758.55
2018-11-22T11:11:07.586Z,101750.73
2018-11-22T11:14:52.796Z,101749.67
2018-11-22T11:18:37.889Z,101745.47
2018-11-22T11:22:22.998Z,101748.18
2018-11-22T11:26:08.151Z,101741.36
2018-11-22T11:30:11.836Z,101742.24
2018-11-22T11:33:57.289Z,101739.31
2018-11-22T11:37:42.510Z,101741.07
2018-11-22T11:41:27.685Z,101738.21
2018-11-22T11:45:12.902Z,101736.02
2018-11-22T11:48:58.169Z,101736.03
2018-11-22T11:52:43.433Z,101729.17
2018-11-22T11:56:28.547Z,101732.37
2018-11-22T12:00:51.500Z,101731.84
2018-11-22T12:04:36.674Z,101738.31
2018-11-22T12:08:22.099Z,101723.98
2018-11-22T12:12:07.421Z,101718.73
2018-11-22T12:15:52.704Z,101711.11
2018-11-22T12:19:38.008Z,101705.98
2018-11-22T12:23:24.374Z,101703.48
2018-11-22T12:27:09.882Z,101708.09
2018-11-22T12:30:55.307Z,101694.62
2018-11-22T12:34:59.283Z,101692.98
2018-11-22T12:38:45.256Z,101694.56
2018-11-22T12:42:30.394Z,101689.27
2018-11-22T12:46:15.578Z,101695.30
2018-11-22T12:50:01.774Z,101691.19
2018-11-22T12:54:05.382Z,101684.98
2018-11-22T12:57:50.628Z,101684.80
2018-11-22T13:01:54.314Z,101682.44
2018-11-22T13:05:39.430Z,101681.64
2018-11-22T13:09:24.553Z,101680.66
2018-11-22T13:13:28.231Z,101682.31
2018-11-22T13:17:31.935Z,101670.47
2018-11-22T13:21:17.141Z,101678.17
2018-11-22T13:25:02.283Z,101671.12
2018-11-22T13:28:47.409Z,101673.64
2018-11-22T13:32:32.534Z,101672.05
2018-11-22T13:36:17.670Z,101669.21
2018-11-22T13:40:02.777Z,101673.87
2018-11-22T13:44:06.460Z,101672.34
2018-11-22T13:47:52.913Z,101673.00
2018-11-22T13:51:38.051Z,101671.76
2018-11-22T13:55:23.162Z,101666.72
2018-11-22T13:59:08.313Z,101674.42
2018-11-22T14:02:54.983Z,101676.48
2018-11-22T14:06:40.113Z,101675.20
2018-11-22T14:10:25.244Z,101676.83
2018-11-22T14:14:10.378Z,101679.23
2018-11-22T14:17:57.245Z,101677.58
2018-11-22T14:21:42.475Z,101676.67
2018-11-22T14:25:27.682Z,101670.30
2018-11-22T14:29:13.211Z,101667.74
2018-11-22T14:32:58.364Z,101663.67
2018-11-22T14:36:43.977Z,101666.67
2018-11-22T14:40:30.903Z,101668.13
2018-11-22T14:44:16.028Z,101662.92
2018-11-22T14:48:19.703Z,101656.04
2018-11-22T14:52:04.854Z,101663.27
2018-11-22T14:55:49.986Z,101659.23
2018-11-22T14:59:35.559Z,101666.36
2018-11-22T15:03:20.979Z,101662.11
2018-11-22T15:07:06.124Z,101664.28
2018-11-22T15:10:51.283Z,101659.00
2018-11-22T15:14:55.325Z,101656.41
2018-11-22T15:18:40.461Z,101657.60
2018-11-22T15:22:25.681Z,101650.94
2018-11-22T15:26:29.350Z,101650.09
2018-11-22T15:30:33.092Z,101651.26
2018-11-22T15:34:18.194Z,101645.83
2018-11-22T15:38:03.402Z,101650.66
2018-11-22T15:41:48.521Z,101651.52
2018-11-22T15:45:34.965Z,101653.52
2018-11-22T15:49:19.068Z,101653.52
2018-11-22T15:53:04.471Z,101652.73
2018-11-22T15:56:30.643Z,101659.19
2018-11-22T16:00:18.451Z,101658.80
2018-11-22T16:04:03.634Z,101662.16
2018-11-22T16:07:43.148Z,101664.41
2018-11-22T16:11:28.280Z,101668.70
2018-11-22T16:14:54.489Z,101678.02
2018-11-22T16:18:39.615Z,101680.87
2018-11-22T16:22:05.912Z,101682.64
2018-11-22T16:25:51.161Z,101687.34
2018-11-22T16:29:36.277Z,101689.17
2018-11-22T16:33:21.424Z,101679.98
2018-11-22T16:37:06.549Z,101689.69
2018-11-22T16:40:51.814Z,101690.39
2018-11-22T16:44:55.520Z,101694.93
2018-11-22T16:48:40.647Z,101695.97
2018-11-22T16:52:25.873Z,101691.09
2018-11-22T16:56:10.993Z,101687.45
2018-11-22T16:59:56.168Z,101689.70
2018-11-22T17:03:41.232Z,101697.69
2018-11-22T17:07:26.532Z,101694.30
2018-11-22T17:11:11.671Z,101702.84
2018-11-22T17:14:56.785Z,101699.48
2018-11-22T17:19:00.483Z,101700.81
2018-11-22T17:22:46.367Z,101698.31
2018-11-22T17:26:50.053Z,101706.48
2018-11-22T17:30:39.767Z,101710.47
2018-11-22T17:34:24.901Z,101714.50
2018-11-22T17:38:10.959Z,101715.58
2018-11-22T17:41:56.149Z,101707.91
2018-11-22T17:45:42.758Z,101706.22
2018-11-22T17:49:27.892Z,101698.56
2018-11-22T17:53:13.500Z,101704.25
2018-11-22T17:56:58.618Z,101713.40
2018-11-22T18:01:02.290Z,101706.72
2018-11-22T18:04:47.471Z,101712.48
2018-11-22T18:08:32.641Z,101720.58
2018-11-22T18:12:17.772Z,101725.48
2018-11-22T18:16:02.999Z,101720.59
2018-11-22T18:19:48.103Z,101721.58
2018-11-22T18:23:33.593Z,101719.87
2018-11-22T18:27:18.731Z,101724.76
2018-11-22T18:31:03.908Z,101721.73
2018-11-22T18:34:49.439Z,101721.94
2018-11-22T18:38:34.660Z,101723.42
2018-11-22T18:42:19.802Z,101730.73
2018-11-22T18:46:05.779Z,101735.34
2018-11-22T18:49:51.261Z,101738.38
2018-11-22T18:53:54.928Z,101736.52
2018-11-22T18:57:58.635Z,101741.47
2018-11-22T19:01:45.071Z,101739.95
2018-11-22T19:05:47.483Z,101736.01
2018-11-22T19:09:51.572Z,101728.76
2018-11-22T19:13:36.698Z,101729.53
2018-11-22T19:17:22.182Z,101732.95
2018-11-22T19:21:07.341Z,101720.27
2018-11-22T19:24:52.736Z,101725.83
2018-11-22T19:28:38.126Z,101735.61
2018-11-22T19:32:23.401Z,101733.38
2018-11-22T19:36:08.816Z,101741.91
2018-11-22T19:39:53.990Z,101738.84
2018-11-22T19:43:39.135Z,101737.77
2018-11-22T19:47:24.325Z,101736.74
2018-11-22T19:51:09.468Z,101735.78
2018-11-22T19:55:13.154Z,101737.81
2018-11-22T19:58:58.284Z,101732.91
2018-11-22T20:03:01.999Z,101739.47
2018-11-22T20:07:05.666Z,101734.96
2018-11-22T20:10:51.308Z,101733.22
2018-11-22T20:14:36.422Z,101730.31
2018-11-22T20:18:40.089Z,101738.66
2018-11-22T20:22:25.500Z,101741.16
2018-11-22T20:26:11.033Z,101740.55
2018-11-22T20:30:14.701Z,101739.41
2018-11-22T20:33:59.875Z,101743.38
2018-11-22T20:37:45.775Z,101738.80
2018-11-22T20:41:49.433Z,101745.52
2018-11-22T20:45:40.683Z,101743.82
2018-11-22T20:49:20.395Z,101752.25
2018-11-22T20:53:05.589Z,101742.72
2018-11-22T20:56:50.776Z,101745.26
2018-11-22T21:00:37.631Z,101744.23
2018-11-22T21:04:03.821Z,101747.80
2018-11-22T21:07:48.978Z,101752.88
2018-11-22T21:11:34.095Z,101756.95
2018-11-22T21:15:38.713Z,101750.17
2018-11-22T21:19:23.891Z,101746.31
2018-11-22T21:23:09.037Z,101747.45
2018-11-22T21:26:54.623Z,101752.77
2018-11-22T21:30:40.691Z,101754.32
2018-11-22T21:34:26.264Z,101744.46
2018-11-22T21:38:11.388Z,101745.63
2018-11-22T21:42:15.079Z,101752.02
2018-11-22T21:46:00.201Z,101744.63
2018-11-22T21:50:06.708Z,101744.61
2018-11-22T21:54:10.401Z,101745.44
2018-11-22T21:57:56.675Z,101737.34
2018-11-22T22:01:41.823Z,101743.39
2018-11-22T22:05:26.943Z,101745.16
2018-11-22T22:09:12.028Z,101735.91
2018-11-22T22:12:57.184Z,101734.98
2018-11-22T22:16:42.305Z,101735.70
2018-11-22T22:20:46.005Z,101736.61
2018-11-22T22:24:31.172Z,101736.77
2018-11-22T22:28:16.619Z,101727.63
2018-11-22T22:32:01.771Z,101736.27
2018-11-22T22:35:46.956Z,101742.92
2018-11-22T22:39:32.077Z,101734.77
2018-11-22T22:43:17.170Z,101736.11
2018-11-22T22:47:02.284Z,101736.11
2018-11-22T22:50:47.693Z,101746.88
2018-11-22T22:54:32.870Z,101747.48
2018-11-22T22:58:18.024Z,101747.47
2018-11-22T23:02:22.132Z,101748.24
2018-11-22T23:06:07.243Z,101748.70
2018-11-22T23:09:52.352Z,101747.83
2018-11-22T23:13:37.474Z,101739.95
2018-11-22T23:17:41.150Z,101743.87
2018-11-22T23:21:26.253Z,101742.47
2018-11-22T23:25:12.434Z,101745.34
2018-11-22T23:28:57.547Z,101745.06
2018-11-22T23:32:43.017Z,101740.73
2018-11-22T23:36:28.131Z,101744.59
2018-11-22T23:40:14.782Z,101737.92
2018-11-22T23:44:00.176Z,101739.20
2018-11-22T23:47:45.775Z,101734.88
2018-11-22T23:51:30.875Z,101732.43
2018-11-22T23:55:34.555Z,101726.94
2018-11-22T23:59:19.759Z,101722.17
